Heniches'K, Ukraine
Current Conditions -  °F | °C
As of 6:30 AM on Tuesday 21 Oct 2014 (Local Time) from URFF Reporting Station
Scattered Clouds Scattered Clouds  
Wind Chill: 52°   Ceiling: Unl
Heat Index: 52°   Visibility: 6mi
Dew Point: 48°   Wind: 11mph
Humidity: 88%   Direction: 190°S
Pressure: 29.91"   Gusts: NA
Location:  46.17°N, 34.81°E
Report Text: URFF 210330Z 19005MPS 150V220 9999 SCT020 11/09 Q1013 19010065NOSIG
Loading
Personal Weather Stations






























Interactive Weather Map
Tropical Storm Tracking
New forecast layout! Learn more

10-Day Weather Forecast

Advertisements
Track Severe Weather on mobile